Lansdowne, Virginia
Current Conditions -  °F | °C
As of 9:15 PM on Saturday 22 Nov 2014 (Local Time) from KJYO Reporting Station
Overcast Overcast  
Wind Chill: 38°   Ceiling: 11000
Heat Index: 43°   Visibility: 10mi
Dew Point: 21°   Wind: 8mph
Humidity: 42%   Direction: 200°SSW
Pressure: 30.25"   Gusts: NA
Location:  39.1846°N, 77.5476°W
Report Text: KJYO 230215Z AUTO 20007KT 10SM OVC110 06/M06 A3025 RMK AO2
Loading
Personal Weather Stations






























Interactive Weather Map New forecast layout! Learn more

10-Day Weather Forecast

Advertisements
Track Severe Weather on mobile